Black Mesa, Arizona
Current Conditions -  °F | °C
As of 3:53 PM on Saturday 25 Oct 2014 (Local Time) from KPGA Reporting Station
Clear Clear  
Wind Chill: 78°   Ceiling: Unl
Heat Index: 78°   Visibility: 10mi
Dew Point: 36°   Wind: 6mph
Humidity: 22%   Direction: NA
Pressure: 30.1"   Gusts: NA
Location:  36.6859°N, 110.268°W
Report Text: KPGA 252153Z AUTO VRB05KT 10SM CLR 26/02 A3010 RMK AO2 SLP141 T02560022
Loading
Personal Weather Stations






























Interactive Weather Map New forecast layout! Learn more

10-Day Weather Forecast

Advertisements
Track Severe Weather on mobile